Time;durP1;ratioP1;P1;durP2;ratioP2;P2;SDS_P1;SDS_P2;PMS_P1;PMS_P2;Temp;Humidity;BMP_temperature;BMP_pressure;BME280_temperature;BME280_humidity;BME280_pressure;Samples;Min_cycle;Max_cycle;Signal;HPM_P1;HPM_P2
2022/01/22 00:01:06;;;;;;;98.72;42.97;;;;;;;-144.47;100.00;61586.06;4980149;28;20490;-71
2022/01/22 00:03:32;;;;;;;100.03;43.13;;;;;;;-144.47;100.00;61586.06;4981503;28;20427;-73
2022/01/22 00:05:58;;;;;;;99.60;43.00;;;;;;;-144.47;100.00;61586.06;4980971;28;20490;-73
2022/01/22 00:08:24;;;;;;;97.85;41.90;;;;;;;-144.47;100.00;61586.06;4980549;28;20085;-73
2022/01/22 00:10:51;;;;;;;92.10;41.88;;;;;;;-144.47;100.00;61586.06;4982142;28;20121;-73
2022/01/22 00:15:42;;;;;;;93.15;42.13;;;;;;;-144.47;100.00;61586.06;4982653;28;20037;-72
2022/01/22 00:18:08;;;;;;;89.57;41.22;;;;;;;-144.47;100.00;61586.06;4979126;28;20049;-73
2022/01/22 00:20:34;;;;;;;93.55;40.47;;;;;;;-144.47;100.00;61586.06;4981877;28;20035;-72
2022/01/22 00:22:59;;;;;;;91.93;41.22;;;;;;;-144.47;100.00;61586.06;4980017;28;20034;-73
2022/01/22 00:25:25;;;;;;;119.28;40.97;;;;;;;-144.47;100.00;61586.06;4980531;28;20038;-72
2022/01/22 00:27:51;;;;;;;93.15;40.33;;;;;;;-144.47;100.00;61586.06;4981446;28;20026;-74
2022/01/22 00:30:20;;;;;;;91.78;40.72;;;;;;;-144.47;100.00;61586.06;4979362;28;20514;-73
2022/01/22 00:32:46;;;;;;;138.25;41.13;;;;;;;-144.47;100.00;61586.06;4982148;28;20117;-72
2022/01/22 00:35:12;;;;;;;107.32;39.83;;;;;;;-144.47;100.00;61586.06;4977603;28;20035;-71
2022/01/22 00:37:41;;;;;;;101.18;39.88;;;;;;;-144.47;100.00;61586.06;4980669;28;20464;-72
2022/01/22 00:40:08;;;;;;;110.60;39.75;;;;;;;-144.47;100.00;61586.06;4979514;28;20038;-71
2022/01/22 00:42:34;;;;;;;109.80;39.42;;;;;;;-144.47;100.00;61586.06;4985647;28;20035;-73
2022/01/22 00:45:00;;;;;;;107.25;38.75;;;;;;;-144.47;100.00;61586.06;4966675;28;20018;-73
2022/01/22 00:47:25;;;;;;;96.78;40.47;;;;;;;-144.47;100.00;61586.06;4982860;28;20074;-72
2022/01/22 00:49:51;;;;;;;94.97;40.33;;;;;;;-144.47;100.00;61586.06;4984902;28;20045;-73
2022/01/22 00:52:17;;;;;;;92.25;37.75;;;;;;;-144.47;100.00;61586.06;4982982;28;20038;-73
2022/01/22 00:54:42;;;;;;;100.32;39.38;;;;;;;-144.47;100.00;61586.06;4986072;28;20494;-72
2022/01/22 00:57:08;;;;;;;86.78;39.33;;;;;;;-144.47;100.00;61586.06;4981533;28;20034;-72
2022/01/22 00:59:34;;;;;;;98.82;40.00;;;;;;;-144.47;100.00;61586.06;4985393;28;20118;-70
2022/01/22 01:01:59;;;;;;;122.72;38.22;;;;;;;-144.47;100.00;61586.06;4983927;28;20034;-73
2022/01/22 01:04:27;;;;;;;102.65;37.63;;;;;;;-144.47;100.00;61586.06;4983876;28;20138;-73
2022/01/22 01:06:53;;;;;;;131.32;36.90;;;;;;;-144.47;100.00;61586.06;4984600;28;20061;-72
2022/01/22 01:09:19;;;;;;;114.43;36.28;;;;;;;-144.47;100.00;61586.06;4982763;28;20475;-73
2022/01/22 01:11:50;;;;;;;93.18;39.53;;;;;;;-144.47;100.00;61586.06;4984524;28;20038;-72
2022/01/22 01:14:23;;;;;;;87.05;38.60;;;;;;;-144.47;100.00;61586.06;4977987;28;20138;-72
2022/01/22 01:33:27;;;;;;;90.05;38.38;;;;;;;-144.47;100.00;61586.06;4977604;28;20038;-74
2022/01/22 01:35:53;;;;;;;100.22;37.13;;;;;;;-144.47;100.00;61586.06;4980471;28;20046;-73
2022/01/22 01:38:21;;;;;;;87.25;36.28;;;;;;;-144.47;100.00;61586.06;4984619;28;20027;-73
2022/01/22 01:40:56;;;;;;;80.03;37.53;;;;;;;-144.47;100.00;61586.06;4980673;28;20137;-73
2022/01/22 01:43:29;;;;;;;88.25;36.22;;;;;;;-144.47;100.00;61586.06;4984348;28;20479;-73
2022/01/22 01:46:14;;;;;;;78.82;35.78;;;;;;;-144.47;100.00;61586.06;4978142;28;20138;-73
2022/01/22 01:48:43;;;;;;;88.65;34.97;;;;;;;-144.47;100.00;61586.06;5001675;23;20260;-76
2022/01/22 01:51:09;;;;;;;78.43;35.03;;;;;;;-144.47;100.00;61586.06;5000148;28;20100;-76
2022/01/22 01:59:23;;;;;;;81.43;37.95;;;;;;;-144.47;100.00;61586.06;4970440;28;20039;-77
2022/01/22 02:01:49;;;;;;;80.95;36.08;;;;;;;-144.47;100.00;61586.06;4979809;28;20043;-76
2022/01/22 02:04:17;;;;;;;90.63;36.40;;;;;;;-144.47;100.00;61586.06;4964272;28;20418;-76
2022/01/22 02:06:43;;;;;;;79.57;34.92;;;;;;;-144.47;100.00;61586.06;4949817;29;20047;-77
2022/01/22 02:09:10;;;;;;;76.55;36.17;;;;;;;-144.47;100.00;61586.06;4979745;28;20046;-76
2022/01/22 02:11:39;;;;;;;77.70;36.63;;;;;;;-144.47;100.00;61586.06;4961405;28;20066;-76
2022/01/22 02:25:33;;;;;;;84.70;36.70;;;;;;;-144.47;100.00;61586.06;4956167;28;20141;-76
2022/01/22 02:28:01;;;;;;;82.60;38.83;;;;;;;-144.47;100.00;61586.06;4989980;28;20162;-75
2022/01/22 02:30:33;;;;;;;84.68;37.75;;;;;;;-144.47;100.00;61586.06;5016158;28;20119;-76
2022/01/22 02:33:32;;;;;;;73.18;37.00;;;;;;;-144.47;100.00;61586.06;4991003;28;20038;-77
2022/01/22 02:36:04;;;;;;;84.43;38.80;;;;;;;-144.47;100.00;61586.06;5018112;28;20037;-78
2022/01/22 02:38:48;;;;;;;84.28;37.47;;;;;;;-144.47;100.00;61586.06;5014149;28;20029;-76
2022/01/22 02:41:17;;;;;;;76.97;37.92;;;;;;;-144.47;100.00;61586.06;4983882;28;20022;-77
2022/01/22 02:43:45;;;;;;;86.03;38.33;;;;;;;-144.47;100.00;61586.06;5005249;28;20026;-76
2022/01/22 02:46:14;;;;;;;88.50;40.72;;;;;;;-144.47;100.00;61586.06;4986766;28;20128;-77
2022/01/22 02:48:39;;;;;;;87.53;39.28;;;;;;;-144.47;100.00;61586.06;4985728;28;20045;-77
2022/01/22 02:51:05;;;;;;;87.30;40.88;;;;;;;-144.47;100.00;61586.06;4998931;28;20034;-77
2022/01/22 02:53:31;;;;;;;89.75;40.38;;;;;;;-144.47;100.00;61586.06;5000836;28;20030;-77
2022/01/22 02:55:57;;;;;;;79.18;39.03;;;;;;;-144.47;100.00;61586.06;5000271;28;20041;-77
2022/01/22 02:58:24;;;;;;;84.53;39.80;;;;;;;-144.47;100.00;61586.06;5001971;28;20025;-76
2022/01/22 03:00:50;;;;;;;80.50;38.33;;;;;;;-144.47;100.00;61586.06;4999660;28;20034;-77
2022/01/22 03:03:17;;;;;;;120.75;39.13;;;;;;;-144.47;100.00;61586.06;5002102;28;20037;-76
2022/01/22 03:05:42;;;;;;;84.13;41.20;;;;;;;-144.47;100.00;61586.06;4999314;28;20030;-76
2022/01/22 03:08:10;;;;;;;85.32;39.75;;;;;;;-144.47;100.00;61586.06;4999164;28;20112;-77
2022/01/22 03:10:37;;;;;;;244.55;43.42;;;;;;;-144.47;100.00;61586.06;5003061;28;20130;-78
2022/01/22 03:13:25;;;;;;;94.32;38.90;;;;;;;-144.47;100.00;61586.06;5000096;28;20036;-77
2022/01/22 03:16:08;;;;;;;86.15;36.95;;;;;;;-144.47;100.00;61586.06;5017914;28;20038;-76
2022/01/22 03:21:10;;;;;;;87.38;38.78;;;;;;;-144.47;100.00;61586.06;5003349;28;20064;-76
2022/01/22 03:29:12;;;;;;;71.78;36.40;;;;;;;-144.47;100.00;61586.06;5002146;28;20034;-77
2022/01/22 03:31:38;;;;;;;81.68;37.85;;;;;;;-144.47;100.00;61586.06;5003494;28;20485;-76
2022/01/22 03:34:04;;;;;;;122.10;40.30;;;;;;;-144.47;100.00;61586.06;4999018;28;20049;-76
2022/01/22 03:36:33;;;;;;;187.52;40.00;;;;;;;-144.47;100.00;61586.06;5000491;28;20038;-77
2022/01/22 03:39:05;;;;;;;79.18;37.45;;;;;;;-144.47;100.00;61586.06;4999664;28;20485;-77
2022/01/22 03:41:31;;;;;;;77.75;37.50;;;;;;;-144.47;100.00;61586.06;5000727;28;20080;-76
2022/01/22 03:43:56;;;;;;;85.75;38.17;;;;;;;-144.47;100.00;61586.06;5033103;28;20038;-77
2022/01/22 03:46:22;;;;;;;83.68;38.22;;;;;;;-144.47;100.00;61586.06;4999136;28;20557;-76
2022/01/22 03:48:49;;;;;;;96.20;37.17;;;;;;;-144.47;100.00;61586.06;5033690;28;20042;-77
2022/01/22 03:51:15;;;;;;;89.95;39.67;;;;;;;-144.47;100.00;61586.06;4999763;28;20058;-76
2022/01/22 03:53:41;;;;;;;90.65;39.50;;;;;;;-144.47;100.00;61586.06;5002919;28;20054;-77
2022/01/22 03:56:07;;;;;;;90.57;37.88;;;;;;;-144.47;100.00;61586.06;4999902;28;20052;-76
2022/01/22 03:58:48;;;;;;;104.88;39.08;;;;;;;-144.47;100.00;61586.06;4996466;28;20109;-77
2022/01/22 04:10:06;;;;;;;119.30;39.25;;;;;;;-144.47;100.00;61586.06;4998906;28;20338;-75
2022/01/22 04:15:03;;;;;;;85.85;38.17;;;;;;;-144.47;100.00;61586.06;4999604;28;20490;-76
2022/01/22 04:25:34;;;;;;;89.18;39.60;;;;;;;-144.47;100.00;61586.06;5012570;28;20529;-77
2022/01/22 04:28:00;;;;;;;84.30;40.58;;;;;;;-144.47;100.00;61586.06;5040915;28;20022;-77
2022/01/22 04:30:28;;;;;;;88.15;39.72;;;;;;;-144.47;100.00;61586.06;4995704;28;20101;-76
2022/01/22 04:32:54;;;;;;;79.93;37.33;;;;;;;-144.47;100.00;61586.06;5000262;28;20026;-76
2022/01/22 04:35:22;;;;;;;94.75;42.58;;;;;;;-144.47;100.00;61586.06;5001942;28;20052;-77
2022/01/22 04:37:48;;;;;;;98.47;39.92;;;;;;;-144.47;100.00;61586.06;4999467;28;20379;-76
2022/01/22 04:40:15;;;;;;;76.13;37.45;;;;;;;-144.47;100.00;61586.06;5002950;28;20034;-77
2022/01/22 04:42:42;;;;;;;82.15;38.03;;;;;;;-144.47;100.00;61586.06;4999330;28;20034;-78
2022/01/22 04:55:45;;;;;;;83.75;37.38;;;;;;;-144.47;100.00;61586.06;5001030;28;20516;-77
2022/01/22 04:58:11;;;;;;;90.38;39.20;;;;;;;-144.47;100.00;61586.06;4993638;28;20042;-76
2022/01/22 05:00:40;;;;;;;85.30;37.08;;;;;;;-144.47;100.00;61586.06;5000771;28;20180;-77
2022/01/22 05:03:29;;;;;;;83.38;37.08;;;;;;;-144.47;100.00;61586.06;4998971;28;20087;-76
2022/01/22 05:06:16;;;;;;;85.70;38.55;;;;;;;-144.47;100.00;61586.06;4994588;28;20042;-77
2022/01/22 05:09:00;;;;;;;81.65;39.30;;;;;;;-144.47;100.00;61586.06;4999407;28;20038;-76
2022/01/22 05:11:44;;;;;;;74.00;36.03;;;;;;;-144.47;100.00;61586.06;4994274;28;20093;-76
2022/01/22 05:14:10;;;;;;;78.45;37.72;;;;;;;-144.47;100.00;61586.06;5002009;28;20029;-75
2022/01/22 05:16:37;;;;;;;83.10;36.45;;;;;;;-144.47;100.00;61586.06;4998435;28;20086;-76
2022/01/22 05:19:11;;;;;;;78.28;36.28;;;;;;;-144.47;100.00;61586.06;5001136;28;20080;-76
2022/01/22 05:21:38;;;;;;;77.10;35.65;;;;;;;-144.47;100.00;61586.06;5000969;28;20409;-76
2022/01/22 05:24:09;;;;;;;72.35;37.10;;;;;;;-144.47;100.00;61586.06;4999052;28;20842;-77
2022/01/22 05:29:30;;;;;;;72.68;36.95;;;;;;;-144.47;100.00;61586.06;5002813;28;20501;-77
2022/01/22 05:32:34;;;;;;;75.03;36.45;;;;;;;-144.47;100.00;61586.06;4990317;28;20038;-77
2022/01/22 05:38:09;;;;;;;74.05;35.70;;;;;;;-144.47;100.00;61586.06;5002016;28;20034;-77
2022/01/22 05:40:36;;;;;;;75.40;35.22;;;;;;;-144.47;100.00;61586.06;5005172;28;20062;-77
2022/01/22 05:43:04;;;;;;;72.95;35.15;;;;;;;-144.47;100.00;61586.06;5001628;28;20390;-77
2022/01/22 05:45:29;;;;;;;83.90;38.20;;;;;;;-144.47;100.00;61586.06;5003895;28;20578;-76
2022/01/22 05:47:55;;;;;;;70.18;34.53;;;;;;;-144.47;100.00;61586.06;5002829;28;20109;-77
2022/01/22 05:50:43;;;;;;;72.47;35.47;;;;;;;-144.47;100.00;61586.06;5002159;28;20050;-77
2022/01/22 05:53:20;;;;;;;79.72;35.47;;;;;;;-144.47;100.00;61586.06;5001912;28;20537;-76
2022/01/22 06:01:29;;;;;;;74.25;34.33;;;;;;;-144.47;100.00;61586.06;5042759;28;20085;-75
2022/01/22 06:04:04;;;;;;;76.10;36.03;;;;;;;-144.47;100.00;61586.06;5003648;28;20378;-75
2022/01/22 06:06:29;;;;;;;79.88;35.53;;;;;;;-144.47;100.00;61586.06;5004723;28;20038;-76
2022/01/22 06:08:59;;;;;;;74.85;35.13;;;;;;;-144.47;100.00;61586.06;4999723;28;20045;-75
2022/01/22 06:11:30;;;;;;;77.38;35.03;;;;;;;-144.47;100.00;61586.06;5002121;28;20030;-76
2022/01/22 06:13:56;;;;;;;70.15;34.33;;;;;;;-144.47;100.00;61586.06;5002014;28;20116;-77
2022/01/22 06:16:48;;;;;;;88.20;37.88;;;;;;;-144.47;100.00;61586.06;4997018;28;20046;-76
2022/01/22 06:19:22;;;;;;;70.20;33.90;;;;;;;-144.47;100.00;61586.06;5004843;28;20055;-76
2022/01/22 06:21:51;;;;;;;97.60;38.17;;;;;;;-144.47;100.00;61586.06;5036449;28;20160;-76
2022/01/22 06:24:21;;;;;;;76.00;36.85;;;;;;;-144.47;100.00;61586.06;5000951;28;20038;-76
2022/01/22 06:26:47;;;;;;;78.32;34.67;;;;;;;-144.47;100.00;61586.06;5036600;28;20087;-76
2022/01/22 06:29:14;;;;;;;81.00;37.75;;;;;;;-144.47;100.00;61586.06;5000684;28;20038;-76
2022/01/22 06:31:40;;;;;;;78.43;34.97;;;;;;;-144.47;100.00;61586.06;5004238;28;20076;-77
2022/01/22 06:34:06;;;;;;;73.78;34.38;;;;;;;-144.47;100.00;61586.06;5002704;28;20036;-77
2022/01/22 06:36:32;;;;;;;72.40;35.65;;;;;;;-144.47;100.00;61586.06;5015752;28;20027;-78
2022/01/22 06:39:12;;;;;;;79.03;35.97;;;;;;;-144.47;100.00;61586.06;5014433;28;20097;-76
2022/01/22 06:41:56;;;;;;;76.47;36.80;;;;;;;-144.47;100.00;61586.06;5001691;28;20064;-77
2022/01/22 06:44:50;;;;;;;81.32;35.13;;;;;;;-144.47;100.00;61586.06;5004431;28;20060;-75
2022/01/22 06:47:41;;;;;;;85.63;36.60;;;;;;;-144.47;100.00;61586.06;5006807;28;20046;-75
2022/01/22 06:50:10;;;;;;;146.93;37.42;;;;;;;-144.47;100.00;61586.06;5005370;28;20141;-76
2022/01/22 06:52:58;;;;;;;83.90;36.08;;;;;;;-144.47;100.00;61586.06;4999863;28;20096;-76
2022/01/22 06:56:00;;;;;;;86.88;35.88;;;;;;;-144.47;100.00;61586.06;4997121;28;20149;-76
2022/01/22 06:58:34;;;;;;;79.25;36.35;;;;;;;-144.47;100.00;61586.06;5001948;28;20391;-77
2022/01/22 07:01:04;;;;;;;75.13;35.97;;;;;;;-144.47;100.00;61586.06;5004304;28;20734;-78
2022/01/22 07:03:56;;;;;;;80.95;36.85;;;;;;;-144.47;100.00;61586.06;4993349;28;20057;-75
2022/01/22 07:06:54;;;;;;;79.25;36.35;;;;;;;-144.47;100.00;61586.06;4999833;28;20064;-76
2022/01/22 07:09:19;;;;;;;78.90;38.20;;;;;;;-144.47;100.00;61586.06;5002074;28;20466;-76
2022/01/22 07:11:45;;;;;;;72.72;34.80;;;;;;;-144.47;100.00;61586.06;5000591;28;20030;-76
2022/01/22 07:14:11;;;;;;;75.03;35.95;;;;;;;-144.47;100.00;61586.06;5002109;28;20030;-74
2022/01/22 07:16:37;;;;;;;74.30;35.38;;;;;;;-144.47;100.00;61586.06;5002547;28;20481;-78
2022/01/22 07:19:21;;;;;;;75.68;34.22;;;;;;;-144.47;100.00;61586.06;5001681;28;20048;-77
2022/01/22 07:22:02;;;;;;;76.38;34.42;;;;;;;-144.47;100.00;61586.06;4999410;28;20057;-77
2022/01/22 07:24:36;;;;;;;81.85;35.92;;;;;;;-144.47;100.00;61586.06;5001199;28;20128;-77
2022/01/22 07:27:05;;;;;;;72.95;35.50;;;;;;;-144.47;100.00;61586.06;5001175;28;20184;-78
2022/01/22 07:29:32;;;;;;;72.95;35.38;;;;;;;-144.47;100.00;61586.06;4984794;28;20496;-77
2022/01/22 07:32:02;;;;;;;72.60;35.40;;;;;;;-144.47;100.00;61586.06;4998530;28;20124;-76
2022/01/22 07:34:29;;;;;;;76.55;35.67;;;;;;;-144.47;100.00;61586.06;4986222;28;20077;-77
2022/01/22 07:37:04;;;;;;;79.45;35.30;;;;;;;-144.47;100.00;61586.06;5000758;28;20034;-77
2022/01/22 07:39:31;;;;;;;76.38;37.78;;;;;;;-144.47;100.00;61586.06;5000198;28;20034;-77
2022/01/22 07:42:19;;;;;;;75.63;34.63;;;;;;;-144.47;100.00;61586.06;5003143;28;20107;-77
2022/01/22 07:45:11;;;;;;;83.85;36.65;;;;;;;-144.47;100.00;61586.06;4985215;28;20038;-77
2022/01/22 07:47:39;;;;;;;76.05;35.42;;;;;;;-144.47;100.00;61586.06;4999246;28;20030;-78
2022/01/22 07:50:09;;;;;;;77.40;36.50;;;;;;;-144.47;100.00;61586.06;5001059;28;20514;-77
2022/01/22 07:52:35;;;;;;;77.07;37.90;;;;;;;-144.47;100.00;61586.06;5000794;28;20118;-78
2022/01/22 07:55:01;;;;;;;77.80;36.35;;;;;;;-144.47;100.00;61586.06;4999610;28;20129;-77
2022/01/22 07:57:26;;;;;;;80.20;37.22;;;;;;;-144.47;100.00;61586.06;4999541;28;20129;-76
2022/01/22 07:59:55;;;;;;;78.13;36.65;;;;;;;-144.47;100.00;61586.06;5000298;28;20034;-77
2022/01/22 08:02:21;;;;;;;114.05;34.83;;;;;;;-144.47;100.00;61586.06;4998964;28;20106;-77
2022/01/22 08:05:06;;;;;;;85.95;34.47;;;;;;;-144.47;100.00;61586.06;5000225;28;20056;-80
2022/01/22 08:08:10;;;;;;;73.97;33.70;;;;;;;-144.47;100.00;61586.06;4962746;28;20043;-76
2022/01/22 08:11:01;;;;;;;75.05;34.63;;;;;;;-144.47;100.00;61586.06;4964089;28;20408;-76
2022/01/22 08:13:29;;;;;;;71.07;34.33;;;;;;;-144.47;100.00;61586.06;4944128;28;20462;-77
2022/01/22 08:15:55;;;;;;;66.95;35.17;;;;;;;-144.47;100.00;61586.06;4603831;28;10000198;-77
2022/01/22 08:18:21;;;;;;;71.55;34.45;;;;;;;-144.47;100.00;61586.06;4960380;28;20035;-76
2022/01/22 08:20:47;;;;;;;75.72;31.38;;;;;;;-144.47;100.00;61586.06;4951310;28;20039;-78
2022/01/22 08:23:33;;;;;;;116.18;34.15;;;;;;;-144.47;100.00;61586.06;4942988;28;20043;-77
2022/01/22 08:26:16;;;;;;;95.55;33.13;;;;;;;-144.47;100.00;61586.06;4952072;28;20079;-77
2022/01/22 08:29:03;;;;;;;86.93;34.78;;;;;;;-144.47;100.00;61586.06;4976961;28;20041;-79
2022/01/22 08:36:48;;;;;;;68.35;33.10;;;;;;;-144.47;100.00;61586.06;4947384;28;20082;-78
2022/01/22 08:39:17;;;;;;;72.00;33.80;;;;;;;-144.47;100.00;61586.06;4977608;28;20104;-79
2022/01/22 08:41:43;;;;;;;82.50;34.30;;;;;;;-144.47;100.00;61586.06;5027196;28;20387;-76
2022/01/22 08:44:10;;;;;;;72.97;35.88;;;;;;;-144.47;100.00;61586.06;5030769;28;20038;-75
2022/01/22 08:46:36;;;;;;;77.80;37.75;;;;;;;-144.47;100.00;61586.06;4999120;28;20085;-76
2022/01/22 08:49:04;;;;;;;83.63;38.85;;;;;;;-144.47;100.00;61586.06;4995742;28;20041;-75
2022/01/22 08:51:33;;;;;;;84.07;37.33;;;;;;;-144.47;100.00;61586.06;5005052;28;20049;-75
2022/01/22 08:54:01;;;;;;;78.88;38.13;;;;;;;-144.47;100.00;61586.06;5000581;28;20037;-76
2022/01/22 08:56:28;;;;;;;77.60;37.47;;;;;;;-144.47;100.00;61586.06;4997428;28;20050;-76
2022/01/22 08:58:54;;;;;;;76.15;36.15;;;;;;;-144.47;100.00;61586.06;4998630;28;20097;-77
2022/01/22 09:01:31;;;;;;;77.38;38.17;;;;;;;-144.47;100.00;61586.06;4997852;28;20117;-76
2022/01/22 09:04:03;;;;;;;79.70;35.97;;;;;;;-144.47;100.00;61586.06;5032238;28;20033;-76
2022/01/22 09:06:47;;;;;;;83.03;33.90;;;;;;;-144.47;100.00;61586.06;4994225;28;20045;-76
2022/01/22 09:09:31;;;;;;;69.93;35.20;;;;;;;-144.47;100.00;61586.06;4998296;28;20037;-75
2022/01/22 09:12:02;;;;;;;87.50;36.15;;;;;;;-144.47;100.00;61586.06;4998029;28;20092;-77
2022/01/22 09:14:41;;;;;;;77.30;36.40;;;;;;;-144.47;100.00;61586.06;4997115;28;20038;-77
2022/01/22 09:17:07;;;;;;;81.90;38.50;;;;;;;-144.47;100.00;61586.06;4999884;28;20059;-76
2022/01/22 09:19:34;;;;;;;84.85;38.10;;;;;;;-144.47;100.00;61586.06;5001070;28;20101;-75
2022/01/22 09:22:05;;;;;;;75.85;37.03;;;;;;;-144.47;100.00;61586.06;4999895;28;20492;-74
2022/01/22 09:24:31;;;;;;;75.18;37.35;;;;;;;-144.47;100.00;61586.06;4998682;28;20568;-75
2022/01/22 09:26:59;;;;;;;80.95;35.92;;;;;;;-144.47;100.00;61586.06;5000420;28;20034;-75
2022/01/22 09:29:25;;;;;;;78.60;37.97;;;;;;;-144.47;100.00;61586.06;4997263;28;20374;-77
2022/01/22 09:31:51;;;;;;;73.50;36.25;;;;;;;-144.47;100.00;61586.06;4654916;28;10000179;-75
2022/01/22 09:34:45;;;;;;;72.35;35.83;;;;;;;-144.47;100.00;61586.06;5019011;28;20058;-77
2022/01/22 09:37:18;;;;;;;68.10;34.53;;;;;;;-144.47;100.00;61586.06;4998420;28;20030;-78
2022/01/22 09:40:16;;;;;;;68.80;36.55;;;;;;;-144.47;100.00;61586.06;4982516;28;20030;-75
2022/01/22 09:43:03;;;;;;;67.05;35.50;;;;;;;-144.47;100.00;61586.06;5002482;28;20188;-76
2022/01/22 09:45:49;;;;;;;74.70;35.70;;;;;;;-144.47;100.00;61586.06;4998227;28;20045;-75
2022/01/22 09:48:25;;;;;;;73.50;36.28;;;;;;;-144.47;100.00;61586.06;4983948;28;20041;-75
2022/01/22 09:51:01;;;;;;;71.00;35.05;;;;;;;-144.47;100.00;61586.06;5034069;28;20033;-78
2022/01/22 09:53:45;;;;;;;70.50;34.60;;;;;;;-144.47;100.00;61586.06;4998072;28;20524;-78
2022/01/22 09:56:34;;;;;;;75.82;37.10;;;;;;;-144.47;100.00;61586.06;5002104;28;20034;-78
2022/01/22 09:59:22;;;;;;;72.88;35.85;;;;;;;-144.47;100.00;61586.06;4996815;28;20066;-78
2022/01/22 10:02:20;;;;;;;66.68;35.08;;;;;;;-144.47;100.00;61586.06;5001666;28;20046;-78
2022/01/22 10:04:49;;;;;;;71.05;35.83;;;;;;;-144.47;100.00;61586.06;5000107;28;20042;-79
2022/01/22 10:07:32;;;;;;;73.07;36.67;;;;;;;-144.47;100.00;61586.06;5005621;28;20561;-79
2022/01/22 10:10:18;;;;;;;69.35;35.10;;;;;;;-144.47;100.00;61586.06;5000415;28;20435;-76
2022/01/22 10:13:12;;;;;;;71.78;36.65;;;;;;;-144.47;100.00;61586.06;5004165;28;20046;-76
2022/01/22 10:15:41;;;;;;;75.13;36.80;;;;;;;-144.47;100.00;61586.06;5000690;28;20027;-78
2022/01/22 10:18:18;;;;;;;70.32;36.90;;;;;;;-144.47;100.00;61586.06;5003540;28;20095;-76
2022/01/22 10:20:44;;;;;;;74.20;36.65;;;;;;;-144.47;100.00;61586.06;4997403;28;20122;-76
2022/01/22 10:23:16;;;;;;;72.90;36.30;;;;;;;-144.47;100.00;61586.06;5004321;28;20033;-75
2022/01/22 10:25:48;;;;;;;79.40;39.42;;;;;;;-144.47;100.00;61586.06;5001470;28;20041;-76
2022/01/22 10:28:25;;;;;;;80.13;39.45;;;;;;;-144.47;100.00;61586.06;5003429;28;20033;-77
2022/01/22 10:30:59;;;;;;;75.70;39.15;;;;;;;-144.47;100.00;61586.06;4998198;28;20124;-78
2022/01/22 10:33:43;;;;;;;71.25;36.28;;;;;;;-144.47;100.00;61586.06;5000622;28;20509;-79
2022/01/22 10:36:40;;;;;;;72.32;36.83;;;;;;;-144.47;100.00;61586.06;5008519;28;20042;-78
2022/01/22 10:39:26;;;;;;;68.75;36.60;;;;;;;-144.47;100.00;61586.06;5003759;28;20044;-78
2022/01/22 10:41:52;;;;;;;71.80;36.45;;;;;;;-144.47;100.00;61586.06;5009821;28;20085;-77
2022/01/22 10:44:22;;;;;;;63.15;35.33;;;;;;;-144.47;100.00;61586.06;5005161;28;20501;-75
2022/01/22 10:49:15;;;;;;;68.30;36.83;;;;;;;-144.47;100.00;61586.06;5008999;28;20085;-74
2022/01/22 10:51:49;;;;;;;69.55;37.20;;;;;;;-144.47;100.00;61586.06;5004130;28;20030;-76
2022/01/22 10:54:15;;;;;;;70.65;37.85;;;;;;;-144.47;100.00;61586.06;4997824;28;20034;-75
2022/01/22 10:56:41;;;;;;;72.50;38.80;;;;;;;-144.47;100.00;61586.06;5004278;28;20113;-76
2022/01/22 10:59:12;;;;;;;77.97;41.58;;;;;;;-144.47;100.00;61586.06;5008106;28;20099;-78
2022/01/22 11:01:59;;;;;;;77.40;40.65;;;;;;;-144.47;100.00;61586.06;5014179;28;20167;-79
2022/01/22 11:04:41;;;;;;;80.07;41.92;;;;;;;-144.47;100.00;61586.06;5001996;28;20678;-76
2022/01/22 11:07:14;;;;;;;83.57;41.47;;;;;;;-144.47;100.00;61586.06;5001593;28;20839;-80
2022/01/22 11:09:41;;;;;;;77.40;40.33;;;;;;;-144.47;100.00;61586.06;5002218;28;20053;-78
2022/01/22 11:12:06;;;;;;;83.70;43.05;;;;;;;-144.47;100.00;61586.06;5004556;28;20172;-78
2022/01/22 11:14:35;;;;;;;83.40;43.42;;;;;;;-144.47;100.00;61586.06;5005502;28;20108;-77
2022/01/22 11:17:00;;;;;;;78.47;41.67;;;;;;;-144.47;100.00;61586.06;5009005;28;20034;-77
2022/01/22 11:19:32;;;;;;;81.28;42.63;;;;;;;-144.47;100.00;61586.06;5005376;28;20045;-77
2022/01/22 11:22:05;;;;;;;85.07;44.25;;;;;;;-144.47;100.00;61586.06;5007331;28;20116;-75
2022/01/22 11:24:36;;;;;;;85.05;45.95;;;;;;;-144.47;100.00;61586.06;5012933;28;20034;-76
2022/01/22 11:27:03;;;;;;;83.07;42.83;;;;;;;-144.47;100.00;61586.06;5011047;28;20038;-77
2022/01/22 11:29:34;;;;;;;80.95;43.78;;;;;;;-144.47;100.00;61586.06;5011460;28;20035;-78
2022/01/22 11:32:04;;;;;;;76.53;42.63;;;;;;;-144.47;100.00;61586.06;5001931;28;20043;-76
2022/01/22 11:34:34;;;;;;;85.38;44.50;;;;;;;-144.47;100.00;61586.06;5031673;28;20446;-78
2022/01/22 11:37:12;;;;;;;79.65;43.50;;;;;;;-144.47;100.00;61586.06;4998731;28;20034;-77
2022/01/22 11:39:37;;;;;;;78.00;42.30;;;;;;;-144.47;100.00;61586.06;5000614;28;20053;-77
2022/01/22 11:42:04;;;;;;;75.20;41.38;;;;;;;-144.47;100.00;61586.06;5004433;28;20034;-77
2022/01/22 11:44:50;;;;;;;72.70;41.63;;;;;;;-144.47;100.00;61586.06;5000152;28;20041;-77
2022/01/22 11:47:24;;;;;;;72.47;39.42;;;;;;;-144.47;100.00;61586.06;4997898;28;20084;-77
2022/01/22 11:50:11;;;;;;;72.38;41.05;;;;;;;-144.47;100.00;61586.06;5005361;28;20148;-77
2022/01/22 11:52:39;;;;;;;67.82;39.35;;;;;;;-144.47;100.00;61586.06;5004811;28;20447;-76
2022/01/22 11:55:09;;;;;;;69.72;40.05;;;;;;;-144.47;100.00;61586.06;5000606;28;20034;-77
2022/01/22 11:57:35;;;;;;;71.70;39.95;;;;;;;-144.47;100.00;61586.06;5002178;28;20387;-78
2022/01/22 12:00:19;;;;;;;69.32;39.40;;;;;;;-144.47;100.00;61586.06;5001072;28;20030;-78
2022/01/22 12:02:45;;;;;;;72.50;40.55;;;;;;;-144.47;100.00;61586.06;4997011;28;20095;-79
2022/01/22 12:05:12;;;;;;;67.05;39.00;;;;;;;-144.47;100.00;61586.06;4999951;28;20423;-76
2022/01/22 12:07:37;;;;;;;65.03;38.55;;;;;;;-144.47;100.00;61586.06;4999555;28;21437;-78
2022/01/22 12:10:31;;;;;;;65.72;40.20;;;;;;;-144.47;100.00;61586.06;5000885;28;20033;-78
2022/01/22 12:16:07;;;;;;;65.40;35.87;;;;;;;-144.47;100.00;61586.06;5001928;28;20034;-77
2022/01/22 12:18:38;;;;;;;57.92;33.72;;;;;;;-144.47;100.00;61586.06;5002529;28;20049;-81
2022/01/22 12:23:32;;;;;;;58.08;34.10;;;;;;;-144.47;100.00;61586.06;4997041;28;20550;-80
2022/01/22 12:26:00;;;;;;;56.00;32.85;;;;;;;-144.47;100.00;61586.06;5001186;28;20085;-79
2022/01/22 12:28:41;;;;;;;55.08;32.97;;;;;;;-144.47;100.00;61586.06;4998745;28;20069;-77
2022/01/22 12:31:16;;;;;;;59.40;32.55;;;;;;;-144.47;100.00;61586.06;4997163;28;20121;-79
2022/01/22 12:33:41;;;;;;;54.45;32.00;;;;;;;-144.47;100.00;61586.06;4996131;28;20033;-78
2022/01/22 12:36:20;;;;;;;48.35;30.02;;;;;;;-144.47;100.00;61586.06;4998328;28;20034;-78
2022/01/22 12:39:01;;;;;;;51.70;31.30;;;;;;;-144.47;100.00;61586.06;4998015;28;20151;-79
2022/01/22 12:44:08;;;;;;;49.88;29.23;;;;;;;-144.47;100.00;61586.06;5002852;28;20034;-80
2022/01/22 12:46:35;;;;;;;48.08;27.77;;;;;;;-144.47;100.00;61586.06;4999605;28;20065;-79
2022/01/22 12:49:03;;;;;;;47.47;28.75;;;;;;;-144.47;100.00;61586.06;5001152;28;20528;-78
2022/01/22 12:51:30;;;;;;;44.47;28.85;;;;;;;-144.47;100.00;61586.06;5000860;28;20042;-77
2022/01/22 12:53:56;;;;;;;47.03;27.75;;;;;;;-144.47;100.00;61586.06;5001029;28;20117;-79
2022/01/22 12:59:06;;;;;;;43.88;27.55;;;;;;;-144.47;100.00;61586.06;5002019;28;20045;-78